Time;durP1;ratioP1;P1;durP2;ratioP2;P2;SDS_P1;SDS_P2;PMS_P1;PMS_P2;Temp;Humidity;BMP_temperature;BMP_pressure;BME280_temperature;BME280_humidity;BME280_pressure;Samples;Min_cycle;Max_cycle;Signal;HPM_P1;HPM_P2
2021/10/06 00:03:07;;;;;;;0.52;0.25;;;23.40;46.20;27.60;93930.00;;;;10392079;28;75736;-63
2021/10/06 00:08:08;;;;;;;0.17;0.10;;;23.40;46.20;27.60;93910.00;;;;10389767;28;73565;-63
2021/10/06 00:13:09;;;;;;;0.45;0.20;;;23.40;46.20;27.60;93934.00;;;;10392691;28;45369;-63
2021/10/06 00:18:12;;;;;;;0.40;0.20;;;23.40;46.10;27.60;93931.00;;;;10392264;28;45299;-63
2021/10/06 00:23:13;;;;;;;0.35;0.10;;;23.40;46.10;27.60;93926.00;;;;10407927;28;47319;-63
2021/10/06 00:28:13;;;;;;;0.40;0.15;;;23.40;46.10;27.60;93913.00;;;;10389529;28;74776;-63
2021/10/06 00:33:14;;;;;;;0.20;0.10;;;23.40;46.10;27.60;93923.00;;;;10406557;28;75675;-63
2021/10/06 00:38:16;;;;;;;0.50;0.20;;;23.40;46.10;27.50;93932.00;;;;10405702;28;75824;-63
2021/10/06 00:43:17;;;;;;;0.22;0.10;;;23.40;46.10;27.50;93927.00;;;;10406250;28;46309;-63
2021/10/06 00:48:17;;;;;;;0.75;0.20;;;23.30;45.90;27.50;93919.00;;;;10391479;28;53016;-63
2021/10/06 00:53:23;;;;;;;0.68;0.20;;;23.30;46.00;27.50;93913.00;;;;10391196;28;75391;-63
2021/10/06 00:58:24;;;;;;;0.55;0.20;;;23.30;46.00;27.50;93911.00;;;;10389687;28;52268;-63
2021/10/06 01:03:24;;;;;;;0.75;0.10;;;23.30;46.00;27.50;93924.00;;;;10401383;28;45435;-63
2021/10/06 01:08:25;;;;;;;0.10;0.10;;;23.30;46.00;27.50;93938.00;;;;10390098;28;45328;-62
2021/10/06 01:13:26;;;;;;;0.40;0.10;;;23.30;46.00;27.50;93931.00;;;;10406020;28;73458;-63
2021/10/06 01:18:27;;;;;;;0.15;0.10;;;23.30;46.00;27.40;93939.00;;;;10406057;28;45493;-63
2021/10/06 01:23:28;;;;;;;0.35;0.10;;;23.30;46.00;27.50;93939.00;;;;10390192;28;68423;-63
2021/10/06 01:28:28;;;;;;;0.20;0.10;;;23.30;46.00;27.40;93932.00;;;;10388431;28;60156;-63
2021/10/06 01:33:30;;;;;;;0.30;0.10;;;23.30;46.00;27.40;93945.00;;;;10405700;28;64302;-63
2021/10/06 01:38:30;;;;;;;0.20;0.10;;;23.20;45.90;27.40;93943.00;;;;10388053;28;75416;-63
2021/10/06 01:43:31;;;;;;;0.28;0.10;;;23.20;45.90;27.40;93948.00;;;;10390248;28;52067;-63
2021/10/06 01:48:32;;;;;;;0.25;0.20;;;23.20;45.90;27.40;93942.00;;;;10405687;28;46595;-63
2021/10/06 01:53:39;;;;;;;0.30;0.00;;;23.20;45.90;27.40;93941.00;;;;10408923;28;74495;-63
2021/10/06 01:58:39;;;;;;;0.30;0.10;;;23.20;45.90;27.40;93939.00;;;;10411970;28;45304;-63
2021/10/06 02:03:40;;;;;;;0.57;0.10;;;23.20;45.90;27.40;93946.00;;;;10396868;28;55770;-63
2021/10/06 02:08:41;;;;;;;0.30;0.10;;;23.20;46.10;27.40;93941.00;;;;10435282;22;64208;-65
2021/10/06 02:13:41;;;;;;;0.38;0.20;;;23.20;45.90;27.30;93933.00;;;;10395743;28;45437;-64
2021/10/06 02:18:42;;;;;;;0.20;0.05;;;23.20;45.90;27.40;93937.00;;;;10397298;28;52385;-64
2021/10/06 02:23:43;;;;;;;0.57;0.20;;;23.20;45.90;27.30;93939.00;;;;10396716;28;74202;-64
2021/10/06 02:28:43;;;;;;;0.15;0.10;;;23.10;45.80;27.30;93951.00;;;;10394412;28;73983;-64
2021/10/06 02:33:44;;;;;;;0.00;0.00;;;23.10;45.80;27.30;93941.00;;;;10390389;28;73383;-65
2021/10/06 02:38:45;;;;;;;1.05;0.30;;;23.10;45.80;27.30;93942.00;;;;10390709;28;75435;-64
2021/10/06 02:43:45;;;;;;;0.20;0.10;;;23.10;45.80;27.30;93945.00;;;;10410785;28;75919;-64
2021/10/06 02:48:46;;;;;;;0.35;0.10;;;23.10;45.80;27.30;93950.00;;;;10392425;28;68568;-64
2021/10/06 02:53:47;;;;;;;0.63;0.10;;;23.10;45.80;27.30;93954.00;;;;10409809;28;75087;-64
2021/10/06 02:58:47;;;;;;;0.75;0.10;;;23.10;45.80;27.30;93953.00;;;;10410407;28;45467;-63
2021/10/06 03:03:48;;;;;;;0.50;0.10;;;23.10;45.80;27.30;93964.00;;;;10409813;28;45473;-65
2021/10/06 03:08:49;;;;;;;0.45;0.10;;;23.10;45.80;27.30;93968.00;;;;10393367;28;70058;-64
2021/10/06 03:13:49;;;;;;;0.60;0.10;;;23.10;45.80;27.30;93963.00;;;;10409740;28;61396;-64
2021/10/06 03:18:50;;;;;;;0.73;0.13;;;23.10;45.80;27.30;93975.00;;;;10392620;28;75234;-65
2021/10/06 03:23:51;;;;;;;0.50;0.10;;;23.10;45.80;27.30;93975.00;;;;10409063;28;75451;-65
2021/10/06 03:28:51;;;;;;;0.30;0.28;;;23.10;45.80;27.20;93977.00;;;;10392508;28;75294;-64
2021/10/06 03:33:52;;;;;;;0.10;0.10;;;23.10;45.80;27.20;93984.00;;;;10408349;28;74359;-64
2021/10/06 03:38:53;;;;;;;0.22;0.00;;;23.10;45.80;27.20;93990.00;;;;10409176;28;46113;-65
2021/10/06 03:43:54;;;;;;;1.15;0.20;;;23.00;45.80;27.20;93979.00;;;;10408529;28;65465;-64
2021/10/06 03:48:54;;;;;;;0.45;0.20;;;23.00;45.70;27.20;93996.00;;;;10407362;28;74047;-65
2021/10/06 03:53:55;;;;;;;0.55;0.10;;;23.10;45.70;27.20;93985.00;;;;10408455;28;74751;-65
2021/10/06 03:58:56;;;;;;;0.55;0.10;;;23.00;45.70;27.20;93998.00;;;;10391995;28;67474;-65
2021/10/06 04:03:57;;;;;;;0.65;0.15;;;23.00;45.70;27.20;93995.00;;;;10407685;28;74512;-65
2021/10/06 04:08:57;;;;;;;0.47;0.10;;;23.00;45.70;27.20;94003.00;;;;10389929;28;75512;-64
2021/10/06 04:13:58;;;;;;;0.70;0.17;;;23.00;45.90;27.30;94013.00;;;;10393231;28;53729;-65
2021/10/06 04:18:59;;;;;;;0.52;0.10;;;23.00;46.10;27.30;94019.00;;;;10393047;28;74385;-65
2021/10/06 04:24:00;;;;;;;0.75;0.20;;;23.10;46.00;27.40;94013.00;;;;10391864;28;69034;-65
2021/10/06 04:29:00;;;;;;;0.50;0.10;;;23.10;45.70;27.40;94017.00;;;;10391436;28;62196;-64
2021/10/06 04:34:01;;;;;;;0.80;0.15;;;23.20;45.60;27.50;94028.00;;;;10392059;28;47482;-65
2021/10/06 04:39:02;;;;;;;0.40;0.10;;;23.20;45.50;27.50;94030.00;;;;10406664;28;74341;-66
2021/10/06 04:44:03;;;;;;;0.35;0.10;;;23.30;45.50;27.50;94034.00;;;;10407633;28;45728;-65
2021/10/06 04:49:05;;;;;;;0.55;0.13;;;23.30;45.50;27.60;94033.00;;;;10406944;28;46104;-64
2021/10/06 04:54:06;;;;;;;0.30;0.20;;;23.30;45.30;27.60;94043.00;;;;10406377;28;60884;-65
2021/10/06 04:59:06;;;;;;;0.60;0.10;;;23.40;45.40;27.60;94036.00;;;;10389226;28;58385;-64
2021/10/06 05:04:07;;;;;;;0.52;0.10;;;23.40;45.30;27.70;94032.00;;;;10390589;28;74355;-64
2021/10/06 05:09:08;;;;;;;0.30;0.10;;;23.40;45.20;27.70;94043.00;;;;10405635;28;75239;-65
2021/10/06 05:14:08;;;;;;;0.40;0.20;;;23.40;45.10;27.70;94046.00;;;;10406118;28;45572;-65
2021/10/06 05:19:12;;;;;;;0.55;0.17;;;23.50;45.10;27.80;94056.00;;;;10390257;28;74178;-65
2021/10/06 05:24:12;;;;;;;0.43;0.20;;;23.50;45.00;27.80;94070.00;;;;10406285;28;45465;-64
2021/10/06 05:29:13;;;;;;;0.35;0.20;;;23.50;44.90;27.80;94064.00;;;;10394149;28;68535;-64
2021/10/06 05:34:14;;;;;;;0.22;0.00;;;23.50;44.90;27.80;94061.00;;;;10395451;28;73682;-65
2021/10/06 05:39:15;;;;;;;0.63;0.10;;;23.50;44.80;27.80;94085.00;;;;10412698;28;45396;-64
2021/10/06 05:44:16;;;;;;;0.50;0.20;;;23.60;44.70;27.90;94081.00;;;;10412365;28;54665;-64
2021/10/06 05:49:16;;;;;;;0.20;0.10;;;23.60;44.70;27.90;94085.00;;;;10396529;28;71547;-64
2021/10/06 05:54:17;;;;;;;0.30;0.10;;;23.60;44.70;27.90;94073.00;;;;10412708;28;75568;-64
2021/10/06 05:59:18;;;;;;;0.32;0.15;;;23.60;44.60;27.90;94081.00;;;;10397462;28;74202;-64
2021/10/06 06:04:19;;;;;;;0.40;0.10;;;23.60;44.40;27.90;94076.00;;;;10397486;28;75512;-64
2021/10/06 06:09:21;;;;;;;1.75;0.20;;;23.60;44.40;27.90;94089.00;;;;10396037;28;48293;-65
2021/10/06 06:14:22;;;;;;;0.40;0.20;;;23.60;44.30;27.90;94083.00;;;;10397799;28;45338;-64
2021/10/06 06:19:23;;;;;;;0.20;0.10;;;23.70;44.30;28.00;94076.00;;;;10395308;28;47895;-65
2021/10/06 06:24:26;;;;;;;0.68;0.10;;;23.60;44.10;28.00;94098.00;;;;10410795;28;74598;-65
2021/10/06 06:29:27;;;;;;;0.82;0.10;;;23.70;44.10;28.00;94102.00;;;;10410856;28;45512;-61
2021/10/06 06:34:28;;;;;;;1.50;0.50;;;23.60;44.00;27.90;94117.00;;;;10394704;28;48258;-62
2021/10/06 06:39:29;;;;;;;1.38;0.25;;;23.50;40.80;27.80;94107.00;;;;10394959;28;45328;-64
2021/10/06 06:44:29;;;;;;;1.25;0.20;;;23.50;42.40;27.90;94130.00;;;;10395204;28;74846;-63
2021/10/06 06:49:30;;;;;;;0.93;0.30;;;23.50;41.70;27.90;94135.00;;;;10393315;28;56877;-62
2021/10/06 06:54:31;;;;;;;1.35;0.25;;;23.60;42.70;28.00;94131.00;;;;10409800;28;75546;-63
2021/10/06 06:59:32;;;;;;;1.00;0.28;;;23.70;42.30;28.00;94146.00;;;;10390878;28;45386;-62
2021/10/06 07:04:33;;;;;;;2.47;0.40;;;23.70;42.50;28.00;94149.00;;;;10393109;28;46194;-62
2021/10/06 07:09:36;;;;;;;3.10;0.40;;;23.70;42.80;28.10;94141.00;;;;10392603;28;74578;-63
2021/10/06 07:14:36;;;;;;;3.33;0.40;;;23.70;42.90;28.00;94149.00;;;;10394437;28;47570;-63
2021/10/06 07:19:38;;;;;;;2.88;0.40;;;23.70;43.10;28.00;94148.00;;;;10409178;28;75389;-65
2021/10/06 07:24:39;;;;;;;3.72;0.43;;;23.60;42.90;28.00;94165.00;;;;10393618;28;45468;-63
2021/10/06 07:29:41;;;;;;;3.20;0.52;;;23.70;43.20;28.00;94159.00;;;;10393177;28;47052;-64
2021/10/06 07:34:41;;;;;;;2.95;0.40;;;23.70;43.10;28.10;94165.00;;;;10383642;28;45380;-65
2021/10/06 07:39:42;;;;;;;1.90;0.25;;;23.60;42.80;28.10;94163.00;;;;10390700;28;51757;-71
2021/10/06 07:44:44;;;;;;;3.55;0.40;;;23.70;43.20;28.10;94177.00;;;;10374787;28;48538;-69
2021/10/06 07:49:44;;;;;;;2.08;0.50;;;23.70;41.90;28.00;94183.00;;;;10390142;28;51699;-65
2021/10/06 07:54:45;;;;;;;1.80;0.30;;;23.60;41.10;27.90;94197.00;;;;10390678;28;74150;-68
2021/10/06 07:59:46;;;;;;;6.07;0.80;;;23.50;40.40;27.90;94190.00;;;;10389990;28;73076;-70
2021/10/06 08:04:46;;;;;;;2.28;0.40;;;23.50;42.30;28.00;94198.00;;;;10389439;28;75636;-70
2021/10/06 08:09:47;;;;;;;1.95;0.40;;;23.60;42.80;28.00;94197.00;;;;10412548;22;75591;-64
2021/10/06 08:14:48;;;;;;;2.80;0.50;;;23.70;43.50;28.10;94217.00;;;;10373301;28;74814;-63
2021/10/06 08:19:49;;;;;;;3.72;0.60;;;23.70;44.00;28.10;94226.00;;;;10390901;28;45335;-64
2021/10/06 08:24:50;;;;;;;1.92;0.38;;;23.80;44.50;28.20;94223.00;;;;10405813;28;45512;-63
2021/10/06 08:29:51;;;;;;;2.80;0.40;;;23.80;44.90;28.20;94235.00;;;;10390412;28;74307;-63
2021/10/06 08:34:53;;;;;;;1.95;0.43;;;23.80;45.50;28.20;94243.00;;;;10389601;28;74192;-63
2021/10/06 08:39:54;;;;;;;1.27;0.32;;;23.80;45.30;28.20;94246.00;;;;10390075;28;45445;-63
2021/10/06 08:44:55;;;;;;;2.78;0.50;;;23.80;44.70;28.20;94238.00;;;;10390461;28;74384;-65
2021/10/06 08:49:57;;;;;;;1.52;0.40;;;23.80;44.70;28.20;94240.00;;;;10370446;28;74396;-63
2021/10/06 08:54:58;;;;;;;2.47;0.40;;;23.80;44.70;28.20;94240.00;;;;10390730;28;74215;-64
2021/10/06 08:59:59;;;;;;;2.30;0.47;;;23.80;44.70;28.30;94233.00;;;;10389221;28;65128;-64
2021/10/06 09:04:59;;;;;;;3.80;0.40;;;23.90;44.70;28.30;94251.00;;;;10381308;28;47034;-65
2021/10/06 09:10:14;;;;;;;1.75;0.50;;;23.90;44.70;28.40;94250.00;;;;10379369;28;73931;-64
2021/10/06 09:15:15;;;;;;;1.20;0.22;;;23.90;44.80;28.40;94262.00;;;;10397041;28;47344;-65
2021/10/06 09:20:16;;;;;;;2.10;0.30;;;23.90;44.90;28.40;94277.00;;;;10395825;28;70672;-63
2021/10/06 09:25:16;;;;;;;2.15;0.30;;;24.00;44.80;28.40;94275.00;;;;10379094;28;75147;-63
2021/10/06 09:30:17;;;;;;;1.33;0.40;;;24.00;44.80;28.40;94273.00;;;;10395669;28;75549;-63
2021/10/06 09:35:24;;;;;;;1.80;0.30;;;24.00;44.80;28.40;94279.00;;;;10395033;28;75421;-63
2021/10/06 09:40:29;;;;;;;1.55;0.40;;;24.00;44.80;28.30;94283.00;;;;10396258;28;45336;-63
2021/10/06 09:45:36;;;;;;;2.05;0.30;;;23.80;42.60;28.20;94279.00;;;;10395974;28;45605;-63
2021/10/06 09:50:45;;;;;;;;;;;23.80;43.50;28.70;94286.00;;;;10396237;28;45419;-63
2021/10/06 09:55:50;;;;;;;1.55;0.40;;;23.80;43.80;28.20;94295.00;;;;10412290;28;45368;-63
2021/10/06 10:00:51;;;;;;;1.80;0.30;;;23.80;44.20;28.20;94301.00;;;;10396567;28;45450;-63
2021/10/06 10:05:52;;;;;;;1.60;0.40;;;23.80;44.40;28.10;94285.00;;;;10380258;28;47534;-63
2021/10/06 10:10:53;;;;;;;1.27;0.38;;;23.80;44.70;28.10;94302.00;;;;10375798;28;64802;-63
2021/10/06 10:15:54;;;;;;;4.65;0.40;;;23.70;44.80;28.10;94304.00;;;;10394873;28;45629;-63
2021/10/06 10:20:56;;;;;;;1.55;0.35;;;23.70;44.90;28.10;94307.00;;;;10394930;28;45345;-65
2021/10/06 10:25:57;;;;;;;1.85;0.20;;;23.70;45.10;28.10;94312.00;;;;10378230;28;47547;-65
2021/10/06 10:31:02;;;;;;;1.55;0.38;;;23.70;45.20;28.10;94313.00;;;;10378072;28;47083;-63
2021/10/06 10:36:03;;;;;;;2.83;0.28;;;23.70;45.30;28.00;94318.00;;;;10378014;28;47962;-65
2021/10/06 10:41:04;;;;;;;1.42;0.38;;;23.60;45.40;28.00;94318.00;;;;10394307;28;46687;-65
2021/10/06 10:46:11;;;;;;;1.60;0.30;;;23.70;45.50;28.00;94304.00;;;;10377004;28;62946;-63
2021/10/06 10:51:12;;;;;;;1.08;0.30;;;23.70;45.50;28.00;94309.00;;;;10377509;28;47147;-65
2021/10/06 10:56:13;;;;;;;2.08;0.40;;;23.60;45.60;28.00;94302.00;;;;10394146;28;46432;-65
2021/10/06 11:01:15;;;;;;;3.15;0.50;;;23.60;45.80;28.00;94316.00;;;;10375989;28;75248;-65
2021/10/06 11:06:36;;;;;;;0.50;0.20;;;23.60;45.90;28.00;94312.00;;;;10393620;28;46403;-64
2021/10/06 11:11:36;;;;;;;1.88;0.40;;;23.50;45.90;27.90;94318.00;;;;10375960;28;47905;-65
2021/10/06 11:17:09;;;;;;;2.33;0.45;;;23.60;45.80;28.10;94306.00;;;;10392522;28;75781;-65
2021/10/06 11:22:22;;;;;;;1.85;0.47;;;23.50;45.40;27.90;94310.00;;;;10391293;28;47135;-65
2021/10/06 11:27:24;;;;;;;1.73;0.40;;;23.50;45.60;27.90;94296.00;;;;10392247;28;47142;-66
2021/10/06 11:32:24;;;;;;;2.10;0.40;;;23.50;45.60;27.90;94310.00;;;;10376588;28;47832;-65
2021/10/06 11:37:27;;;;;;;1.50;0.32;;;23.50;45.60;27.90;94311.00;;;;10370856;28;75049;-65
2021/10/06 11:42:33;;;;;;;1.48;0.30;;;23.50;45.50;27.90;94312.00;;;;10427840;28;48142;-65
2021/10/06 11:47:37;;;;;;;1.42;0.45;;;23.50;45.60;27.90;94323.00;;;;10433149;28;73484;-66
2021/10/06 11:52:38;;;;;;;1.58;0.47;;;23.50;45.60;27.80;94323.00;;;;10433192;28;74237;-65
2021/10/06 11:57:39;;;;;;;2.97;0.45;;;23.50;45.60;27.80;94321.00;;;;10434074;28;75804;-65
2021/10/06 12:02:39;;;;;;;1.33;0.35;;;23.50;45.60;27.80;94306.00;;;;10432974;28;75104;-65
2021/10/06 12:07:40;;;;;;;1.35;0.50;;;23.40;45.60;27.80;94311.00;;;;10432220;28;75414;-64
2021/10/06 12:12:43;;;;;;;0.82;0.30;;;23.50;45.60;27.80;94306.00;;;;10432612;28;47103;-65
2021/10/06 12:17:48;;;;;;;2.50;0.50;;;23.50;45.60;27.80;94292.00;;;;10394167;28;45617;-65
2021/10/06 12:22:57;;;;;;;1.65;0.30;;;23.50;45.90;27.90;94301.00;;;;10374343;28;46432;-64
2021/10/06 12:28:11;;;;;;;2.58;0.52;;;23.50;46.00;27.90;94302.00;;;;10391261;28;45345;-64
2021/10/06 12:33:13;;;;;;;1.08;0.28;;;23.60;46.30;27.90;94303.00;;;;10372846;28;48138;-66
2021/10/06 12:38:15;;;;;;;1.77;0.45;;;23.60;46.40;27.90;94312.00;;;;10390292;28;45429;-65
2021/10/06 12:43:18;;;;;;;2.15;0.50;;;23.60;46.50;27.90;94305.00;;;;10392024;28;56376;-64
2021/10/06 12:48:18;;;;;;;2.50;0.35;;;23.60;46.30;27.90;94309.00;;;;10382608;28;47415;-63
2021/10/06 12:53:19;;;;;;;1.88;0.60;;;23.60;46.10;27.90;94304.00;;;;10390203;28;74399;-63
2021/10/06 12:58:20;;;;;;;1.17;0.30;;;23.60;46.10;28.00;94308.00;;;;10390596;28;45458;-67
2021/10/06 13:03:21;;;;;;;1.00;0.25;;;23.60;46.10;28.00;94316.00;;;;10389984;28;75298;-64
2021/10/06 13:08:22;;;;;;;0.77;0.30;;;23.70;46.70;28.00;94308.00;;;;10390503;28;74794;-63
2021/10/06 13:13:22;;;;;;;0.93;0.20;;;23.70;46.20;28.00;94301.00;;;;10391104;28;75493;-62
2021/10/06 13:18:23;;;;;;;1.70;0.40;;;23.70;46.10;28.00;94305.00;;;;10389072;28;74590;-63
2021/10/06 13:23:24;;;;;;;1.02;0.30;;;23.70;46.10;28.00;94312.00;;;;10388473;28;75289;-63
2021/10/06 13:28:25;;;;;;;1.02;0.30;;;23.70;46.10;28.10;94309.00;;;;10387069;28;75322;-63
2021/10/06 13:33:25;;;;;;;0.63;0.30;;;23.70;46.10;28.10;94300.00;;;;10388264;28;45353;-63
2021/10/06 13:38:27;;;;;;;1.98;0.30;;;23.70;46.10;28.10;94303.00;;;;10388142;28;70420;-63
2021/10/06 13:43:28;;;;;;;1.10;0.28;;;23.70;46.10;28.00;94293.00;;;;10388568;28;45605;-63
2021/10/06 13:48:29;;;;;;;0.65;0.25;;;23.70;46.10;28.00;94308.00;;;;10390869;28;73257;-64
2021/10/06 13:53:30;;;;;;;0.50;0.20;;;23.60;46.10;28.00;94303.00;;;;10388161;28;50660;-66
2021/10/06 13:58:30;;;;;;;1.20;0.30;;;23.60;46.00;28.00;94332.00;;;;10394337;28;46340;-67
2021/10/06 14:03:32;;;;;;;2.08;0.40;;;23.60;46.30;27.90;94337.00;;;;10377926;28;71998;-66
2021/10/06 14:08:37;;;;;;;0.95;0.30;;;23.70;46.70;28.00;94338.00;;;;10377605;28;47019;-64
2021/10/06 14:13:38;;;;;;;2.53;0.50;;;23.70;46.90;28.00;94337.00;;;;10394358;28;47056;-65
2021/10/06 14:18:39;;;;;;;0.85;0.40;;;23.70;46.80;27.90;94331.00;;;;10377053;28;47334;-67
2021/10/06 14:23:39;;;;;;;3.15;0.40;;;23.70;46.50;28.00;94345.00;;;;10395230;28;74046;-69
2021/10/06 14:28:40;;;;;;;2.33;0.40;;;23.70;46.70;28.00;94342.00;;;;10376524;28;75477;-66
2021/10/06 14:33:41;;;;;;;3.15;0.50;;;23.70;46.80;28.00;94346.00;;;;10393526;28;75552;-68
2021/10/06 14:38:41;;;;;;;0.63;0.22;;;23.70;46.80;28.00;94351.00;;;;10376579;28;47189;-66
2021/10/06 14:43:45;;;;;;;3.30;0.40;;;23.70;47.00;28.00;94339.00;;;;10366315;28;75244;-63
2021/10/06 14:48:45;;;;;;;1.27;0.35;;;23.70;47.50;28.00;94343.00;;;;10410435;28;48271;-64
2021/10/06 14:53:47;;;;;;;2.83;0.50;;;23.70;47.20;28.00;94356.00;;;;10390650;28;75335;-65
2021/10/06 14:58:48;;;;;;;1.30;0.30;;;23.70;46.90;28.00;94354.00;;;;10392447;28;46335;-62
2021/10/06 15:03:49;;;;;;;1.77;0.28;;;23.70;47.20;28.00;94341.00;;;;10388423;28;45569;-63
2021/10/06 15:08:50;;;;;;;2.53;0.50;;;23.70;47.00;28.00;94343.00;;;;10387421;28;74573;-64
2021/10/06 15:13:51;;;;;;;1.55;0.60;;;23.70;47.00;28.00;94348.00;;;;10384199;28;73462;-63
2021/10/06 15:18:52;;;;;;;1.42;0.30;;;23.80;47.20;28.00;94357.00;;;;10389999;28;48032;-64
2021/10/06 15:23:53;;;;;;;2.58;0.43;;;23.70;46.60;28.00;94354.00;;;;10392360;28;75562;-64
2021/10/06 15:28:54;;;;;;;3.15;0.30;;;23.70;46.80;28.10;94361.00;;;;10386977;28;75003;-69
2021/10/06 15:33:58;;;;;;;1.58;0.45;;;23.80;46.90;28.10;94372.00;;;;10385533;28;47476;-64
2021/10/06 15:38:59;;;;;;;0.90;0.30;;;23.80;46.90;28.10;94362.00;;;;10381572;28;46180;-66
2021/10/06 15:44:00;;;;;;;1.08;0.20;;;23.80;46.40;28.10;94351.00;;;;10392839;28;45448;-64
2021/10/06 15:49:00;;;;;;;1.40;0.30;;;23.80;47.00;28.10;94359.00;;;;10391527;28;75822;-67
2021/10/06 15:54:03;;;;;;;1.77;0.30;;;23.80;47.00;28.10;94368.00;;;;10391139;28;75209;-64
2021/10/06 15:59:04;;;;;;;1.13;0.30;;;23.80;46.90;28.10;94363.00;;;;10391487;28;47189;-63
2021/10/06 16:04:06;;;;;;;1.35;0.40;;;23.80;46.90;28.10;94357.00;;;;10408935;28;47124;-63
2021/10/06 16:09:08;;;;;;;2.33;0.50;;;23.80;46.80;28.10;94376.00;;;;10390073;28;45395;-64
2021/10/06 16:14:08;;;;;;;4.53;0.50;;;23.80;46.80;28.10;94358.00;;;;10374353;28;48046;-65
2021/10/06 16:19:10;;;;;;;1.30;0.28;;;23.80;46.80;28.10;94363.00;;;;10390615;28;46939;-67
2021/10/06 16:24:11;;;;;;;1.65;0.40;;;23.80;46.60;28.10;94376.00;;;;10390663;28;75414;-65
2021/10/06 16:29:12;;;;;;;1.65;0.20;;;23.80;46.60;28.10;94364.00;;;;10388723;28;70229;-63
2021/10/06 16:34:14;;;;;;;2.10;0.40;;;23.80;46.60;28.10;94379.00;;;;10392105;28;46254;-64
2021/10/06 16:39:15;;;;;;;3.72;0.65;;;23.80;46.50;28.10;94372.00;;;;10391134;28;75718;-63
2021/10/06 16:44:16;;;;;;;1.65;0.30;;;23.80;46.70;28.10;94400.00;;;;10390475;28;48877;-65
2021/10/06 16:49:18;;;;;;;1.50;0.30;;;23.80;46.60;28.10;94398.00;;;;10380843;28;45499;-66
2021/10/06 16:54:19;;;;;;;1.17;0.30;;;23.80;46.60;28.10;94416.00;;;;10388885;28;74489;-64
2021/10/06 16:59:21;;;;;;;1.48;0.30;;;23.80;46.50;28.10;94424.00;;;;10388760;28;75515;-63
2021/10/06 17:04:23;;;;;;;3.13;0.30;;;23.80;46.40;28.10;94428.00;;;;10390892;28;75930;-64
2021/10/06 17:09:23;;;;;;;3.70;0.40;;;23.80;46.30;28.10;94443.00;;;;10370379;28;63905;-65
2021/10/06 17:14:24;;;;;;;1.05;0.30;;;23.80;46.40;28.10;94459.00;;;;10373249;28;52768;-68
2021/10/06 17:19:26;;;;;;;1.50;0.40;;;23.80;46.30;28.10;94455.00;;;;10405458;28;75042;-65
2021/10/06 17:24:27;;;;;;;1.40;0.20;;;23.80;46.30;28.00;94467.00;;;;10378974;28;47120;-66
2021/10/06 17:29:27;;;;;;;1.83;0.35;;;23.80;46.30;28.10;94468.00;;;;10379383;28;75006;-65
2021/10/06 17:34:28;;;;;;;1.00;0.30;;;23.80;45.90;28.00;94468.00;;;;10391521;28;45512;-64
2021/10/06 17:39:29;;;;;;;1.95;0.30;;;23.70;46.00;28.00;94484.00;;;;10411569;28;75139;-64
2021/10/06 17:44:30;;;;;;;1.83;0.30;;;23.70;46.00;28.00;94477.00;;;;10397532;28;45474;-64
2021/10/06 17:49:30;;;;;;;3.03;0.40;;;23.70;46.00;28.00;94502.00;;;;10394793;28;74614;-65
2021/10/06 17:54:31;;;;;;;0.95;0.38;;;23.70;46.10;27.90;94508.00;;;;10395053;28;74630;-64
2021/10/06 17:59:32;;;;;;;2.35;0.40;;;23.60;46.10;27.90;94528.00;;;;10394031;28;75515;-64
2021/10/06 18:04:35;;;;;;;0.38;0.20;;;23.60;46.10;27.90;94535.00;;;;10396540;28;46408;-65
2021/10/06 18:09:36;;;;;;;1.98;0.40;;;23.60;46.20;27.90;94535.00;;;;10390263;28;46298;-66
2021/10/06 18:14:37;;;;;;;1.85;0.40;;;23.60;46.50;27.90;94546.00;;;;10394805;28;75980;-65
2021/10/06 18:19:37;;;;;;;5.50;0.47;;;23.60;46.50;27.90;94548.00;;;;10410566;28;73236;-64
2021/10/06 18:24:38;;;;;;;3.35;0.60;;;23.60;46.90;27.90;94553.00;;;;10395089;28;45378;-65
2021/10/06 18:29:40;;;;;;;2.45;0.70;;;23.70;47.00;28.00;94568.00;;;;10377838;28;75619;-66
2021/10/06 18:34:43;;;;;;;2.40;0.50;;;23.70;46.80;28.00;94558.00;;;;10395035;28;45667;-65
2021/10/06 18:39:45;;;;;;;2.50;0.60;;;23.60;46.70;27.90;94569.00;;;;10395219;28;48048;-65
2021/10/06 18:44:46;;;;;;;2.90;0.50;;;23.60;46.50;27.90;94571.00;;;;10394723;28;47206;-65
2021/10/06 18:49:47;;;;;;;2.38;0.43;;;23.60;46.40;27.90;94563.00;;;;10375895;28;48175;-64
2021/10/06 18:54:48;;;;;;;1.92;0.45;;;23.60;46.40;27.90;94576.00;;;;10377472;28;49889;-65
2021/10/06 18:59:48;;;;;;;6.03;0.55;;;23.60;46.30;27.90;94573.00;;;;10394031;28;51227;-65
2021/10/06 19:04:49;;;;;;;1.70;0.50;;;23.60;46.40;27.90;94587.00;;;;10393792;28;58644;-65
2021/10/06 19:09:50;;;;;;;2.20;0.45;;;23.60;46.30;27.80;94583.00;;;;10394414;28;72971;-66
2021/10/06 19:14:50;;;;;;;2.92;0.43;;;23.50;46.30;27.80;94578.00;;;;10376924;28;75527;-65
2021/10/06 19:19:51;;;;;;;1.85;0.20;;;23.50;46.30;27.80;94581.00;;;;10394120;28;75625;-65
2021/10/06 19:24:52;;;;;;;1.60;0.32;;;23.50;46.20;27.80;94571.00;;;;10392713;28;75341;-65
2021/10/06 19:29:53;;;;;;;1.30;0.38;;;23.50;46.30;27.80;94576.00;;;;10393654;28;46311;-65
2021/10/06 19:34:54;;;;;;;1.42;0.38;;;23.50;46.90;27.80;94574.00;;;;10377519;28;47358;-66
2021/10/06 19:39:55;;;;;;;2.75;0.60;;;23.40;46.20;27.80;94575.00;;;;10376871;28;47003;-65
2021/10/06 19:44:56;;;;;;;2.00;0.40;;;23.50;46.30;27.70;94578.00;;;;10392785;28;45585;-65
2021/10/06 19:49:57;;;;;;;3.78;0.70;;;23.40;46.20;27.70;94594.00;;;;10374743;28;75246;-65
2021/10/06 19:54:57;;;;;;;1.20;0.65;;;23.40;46.20;27.70;94583.00;;;;10376494;28;47239;-65
2021/10/06 19:59:58;;;;;;;3.67;0.75;;;23.40;45.10;27.70;94576.00;;;;10388783;28;74489;-67
2021/10/06 20:04:59;;;;;;;1.75;0.55;;;23.40;45.80;27.70;94586.00;;;;10384327;28;45564;-70
2021/10/06 20:09:59;;;;;;;2.90;0.52;;;23.50;46.00;27.80;94594.00;;;;10374195;28;48425;-63
2021/10/06 20:15:00;;;;;;;3.20;0.70;;;23.50;46.00;27.80;94585.00;;;;10390509;28;70210;-69
2021/10/06 20:20:01;;;;;;;1.67;0.75;;;23.50;46.70;27.80;94589.00;;;;10375140;28;47068;-68
2021/10/06 20:25:05;;;;;;;3.78;0.60;;;23.50;46.30;27.80;94587.00;;;;10392603;28;45614;-73
2021/10/06 20:30:08;;;;;;;2.50;0.70;;;23.60;46.70;27.90;94586.00;;;;10376191;28;53799;-66
2021/10/06 20:35:18;;;;;;;2.63;0.57;;;23.60;46.60;27.90;94585.00;;;;10392607;28;45589;-69
2021/10/06 20:40:20;;;;;;;1.30;0.60;;;23.60;47.20;27.90;94577.00;;;;10390336;28;46109;-71
2021/10/06 20:45:22;;;;;;;2.03;0.70;;;23.60;46.30;27.90;94574.00;;;;10387484;28;47477;-67
2021/10/06 20:50:23;;;;;;;3.28;0.70;;;23.60;46.60;27.90;94586.00;;;;10392570;28;45429;-66
2021/10/06 20:55:27;;;;;;;2.47;0.60;;;23.60;46.50;27.90;94597.00;;;;10389713;28;46233;-64
2021/10/06 21:00:30;;;;;;;4.15;0.60;;;23.60;46.30;27.90;94600.00;;;;10374725;28;45779;-64
2021/10/06 21:05:34;;;;;;;2.17;0.68;;;23.50;45.90;27.80;94595.00;;;;10377460;28;46445;-63
2021/10/06 21:10:38;;;;;;;1.30;0.50;;;23.50;45.80;27.80;94603.00;;;;10373553;28;47153;-64
2021/10/06 21:15:38;;;;;;;1.35;0.60;;;23.50;45.80;27.80;94609.00;;;;10390910;28;45622;-64
2021/10/06 21:20:39;;;;;;;1.75;0.55;;;23.50;45.80;27.70;94614.00;;;;10390617;28;46376;-64
2021/10/06 21:25:40;;;;;;;1.08;0.47;;;23.50;45.80;27.70;94611.00;;;;10390329;28;68781;-64
2021/10/06 21:30:41;;;;;;;1.58;0.50;;;23.40;45.70;27.70;94616.00;;;;10372951;28;76536;-64
2021/10/06 21:35:41;;;;;;;2.22;0.50;;;23.40;45.60;27.70;94616.00;;;;10389932;28;74327;-65
2021/10/06 21:40:42;;;;;;;1.98;0.55;;;23.40;45.60;27.70;94609.00;;;;10389305;28;74538;-65
2021/10/06 21:45:43;;;;;;;1.55;0.60;;;23.40;45.60;27.70;94618.00;;;;10389248;28;54024;-64
2021/10/06 21:50:44;;;;;;;1.60;0.55;;;23.40;45.60;27.60;94608.00;;;;10388013;28;72018;-64
2021/10/06 21:55:45;;;;;;;1.83;0.40;;;23.40;45.60;27.60;94615.00;;;;10389050;28;55457;-64
2021/10/06 22:00:47;;;;;;;1.02;0.60;;;23.30;45.60;27.60;94605.00;;;;10387952;28;73503;-64
2021/10/06 22:05:47;;;;;;;0.73;0.30;;;23.30;45.60;27.60;94605.00;;;;10388927;28;48475;-64